createdAt,value
2022-11-05T00:00:06.668Z,29.45
2022-11-05T00:03:12.917Z,44.33
2022-11-05T00:06:20.341Z,24.67
2022-11-05T00:09:28.313Z,22.00
2022-11-05T00:12:34.084Z,31.55
2022-11-05T00:15:40.204Z,25.27
2022-11-05T00:18:27.505Z,25.77
2022-11-05T00:21:33.254Z,23.45
2022-11-05T00:24:39.384Z,27.55
2022-11-05T00:27:26.738Z,39.33
2022-11-05T00:30:18.498Z,20.42
2022-11-05T00:33:05.779Z,34.47
2022-11-05T00:35:53.126Z,27.83
2022-11-05T00:38:40.484Z,27.45
2022-11-05T00:41:27.733Z,26.40
2022-11-05T00:44:33.683Z,14.52
2022-11-05T00:47:39.744Z,12.55
2022-11-05T00:50:27.499Z,13.38
2022-11-05T00:53:14.822Z,21.33
2022-11-05T00:56:02.660Z,20.17
2022-11-05T00:58:49.970Z,14.88
2022-11-05T01:01:37.347Z,19.15
2022-11-05T01:04:24.823Z,15.95
2022-11-05T01:07:12.075Z,14.55
2022-11-05T01:09:59.381Z,18.80
2022-11-05T01:12:46.814Z,16.10
2022-11-05T01:15:35.788Z,13.07
2022-11-05T01:18:24.295Z,15.82
2022-11-05T01:21:14.178Z,15.00
2022-11-05T01:24:02.375Z,18.15
2022-11-05T01:26:49.703Z,13.02
2022-11-05T01:29:37.304Z,14.93
2022-11-05T01:32:24.603Z,15.00
2022-11-05T01:35:14.615Z,19.60
2022-11-05T01:38:01.941Z,17.20
2022-11-05T01:40:49.449Z,21.40
2022-11-05T01:43:50.241Z,15.73
2022-11-05T01:46:45.349Z,21.38
2022-11-05T01:49:34.576Z,14.63
2022-11-05T01:52:23.731Z,20.58
2022-11-05T01:55:13.489Z,16.52
2022-11-05T01:58:02.264Z,25.83
2022-11-05T02:00:49.707Z,15.32
2022-11-05T02:03:37.689Z,13.35
2022-11-05T02:06:25.962Z,10.90
2022-11-05T02:09:21.578Z,16.08
2022-11-05T02:12:09.859Z,19.75
2022-11-05T02:14:58.002Z,22.75
2022-11-05T02:17:48.284Z,17.75
2022-11-05T02:20:41.801Z,16.80
2022-11-05T02:23:41.347Z,16.73
2022-11-05T02:27:01.772Z,18.35
2022-11-05T02:30:28.048Z,14.82
2022-11-05T02:33:47.317Z,16.63
2022-11-05T02:36:50.238Z,17.42
2022-11-05T02:39:56.208Z,13.88
2022-11-05T02:43:15.179Z,13.55
2022-11-05T02:46:14.829Z,21.33
2022-11-05T02:49:29.947Z,17.98
2022-11-05T02:52:43.405Z,21.52
2022-11-05T02:55:40.097Z,19.55
2022-11-05T02:58:28.917Z,20.40
2022-11-05T03:01:16.516Z,15.77
2022-11-05T03:04:08.202Z,16.33
2022-11-05T03:07:20.541Z,21.00
2022-11-05T03:13:21.417Z,19.08
2022-11-05T03:16:47.707Z,17.17
2022-11-05T03:19:46.533Z,18.35
2022-11-05T03:22:41.446Z,18.30
2022-11-05T03:25:31.155Z,18.63
2022-11-05T03:28:22.231Z,15.85
2022-11-05T03:31:13.322Z,24.63
2022-11-05T03:34:01.945Z,19.23
2022-11-05T03:36:53.447Z,20.77
2022-11-05T03:39:47.555Z,14.60
2022-11-05T03:42:38.692Z,20.50
2022-11-05T03:45:30.768Z,29.67
2022-11-05T03:51:43.743Z,22.45
2022-11-05T03:54:31.560Z,20.23
2022-11-05T03:57:24.054Z,21.00
2022-11-05T04:00:11.918Z,19.80
2022-11-05T04:02:59.195Z,16.15
2022-11-05T04:06:07.072Z,19.75
2022-11-05T04:09:13.135Z,18.70
2022-11-05T04:12:19.067Z,27.08
2022-11-05T04:15:06.947Z,21.30
2022-11-05T04:17:55.517Z,19.67
2022-11-05T04:21:01.432Z,19.75
2022-11-05T04:24:07.165Z,12.90
2022-11-05T04:26:54.778Z,16.45
2022-11-05T04:30:00.773Z,18.38
2022-11-05T04:33:05.350Z,16.42
2022-11-05T04:35:52.989Z,27.48
2022-11-05T04:38:40.263Z,21.13
2022-11-05T04:41:27.635Z,21.05
2022-11-05T04:44:16.164Z,23.95
2022-11-05T04:47:03.462Z,22.45
2022-11-05T04:49:50.847Z,27.00
2022-11-05T04:52:38.144Z,25.38
2022-11-05T04:55:26.036Z,19.83
2022-11-05T04:58:13.308Z,19.42
2022-11-05T05:01:02.901Z,18.48
2022-11-05T05:03:51.623Z,18.13
2022-11-05T05:06:38.914Z,16.83
2022-11-05T05:09:26.207Z,17.00
2022-11-05T05:12:13.502Z,25.05
2022-11-05T05:15:00.809Z,19.23
2022-11-05T05:17:52.085Z,27.48
2022-11-05T05:20:57.692Z,22.48
2022-11-05T05:23:46.918Z,18.58
2022-11-05T05:26:36.013Z,19.30
2022-11-05T05:29:23.588Z,16.27
2022-11-05T05:32:10.937Z,17.63
2022-11-05T05:34:58.324Z,20.20
2022-11-05T05:37:45.652Z,18.05
2022-11-05T05:40:32.968Z,20.65
2022-11-05T05:43:20.226Z,16.85
2022-11-05T05:46:12.151Z,17.95
2022-11-05T05:48:59.674Z,21.35
2022-11-05T05:51:48.901Z,20.48
2022-11-05T05:54:42.292Z,17.20
2022-11-05T05:57:31.416Z,22.45
2022-11-05T06:00:18.838Z,17.27
2022-11-05T06:03:06.623Z,14.68
2022-11-05T06:05:54.051Z,18.02
2022-11-05T06:08:42.559Z,16.80
2022-11-05T06:11:29.890Z,22.33
2022-11-05T06:14:17.334Z,13.82
2022-11-05T06:17:06.403Z,20.90
2022-11-05T06:19:53.688Z,19.45
2022-11-05T06:22:41.048Z,18.98
2022-11-05T06:25:28.377Z,14.65
2022-11-05T06:28:15.699Z,19.08
2022-11-05T06:31:04.120Z,19.23
2022-11-05T06:33:51.627Z,22.55
2022-11-05T06:36:40.095Z,15.68
2022-11-05T06:39:27.722Z,18.77
2022-11-05T06:42:19.204Z,27.23
2022-11-05T06:45:07.543Z,23.35
2022-11-05T06:47:57.032Z,23.35
2022-11-05T06:50:45.216Z,23.95
2022-11-05T06:53:32.654Z,23.88
2022-11-05T06:56:19.918Z,18.45
2022-11-05T06:59:08.605Z,23.80
2022-11-05T07:01:56.310Z,37.22
2022-11-05T07:04:43.800Z,21.33
2022-11-05T07:07:31.049Z,52.72
2022-11-05T07:10:19.414Z,31.65
2022-11-05T07:13:08.437Z,54.72
2022-11-05T07:15:56.638Z,28.98
2022-11-05T07:18:43.908Z,20.52
2022-11-05T07:21:31.185Z,27.48
2022-11-05T07:24:18.495Z,33.88
2022-11-05T07:27:06.176Z,37.75
2022-11-05T07:29:53.419Z,30.00
2022-11-05T07:32:40.863Z,20.95
2022-11-05T07:35:28.600Z,17.60
2022-11-05T07:38:16.971Z,25.83
2022-11-05T07:41:04.330Z,29.50
2022-11-05T07:43:51.605Z,19.52
2022-11-05T07:46:39.149Z,21.13
2022-11-05T07:49:26.466Z,22.30
2022-11-05T07:52:13.761Z,16.63
2022-11-05T07:55:01.167Z,17.98
2022-11-05T07:57:50.970Z,20.30
2022-11-05T08:00:38.490Z,18.95
2022-11-05T08:03:26.154Z,18.75
2022-11-05T08:06:13.622Z,15.52
2022-11-05T08:09:00.950Z,20.70
2022-11-05T08:11:51.139Z,19.05
2022-11-05T08:14:41.472Z,16.98
2022-11-05T08:17:28.862Z,28.70
2022-11-05T08:20:17.115Z,38.70
2022-11-05T08:23:04.995Z,21.83
2022-11-05T08:25:52.411Z,25.13
2022-11-05T08:28:39.878Z,23.38
2022-11-05T08:31:27.928Z,18.55
2022-11-05T08:34:15.219Z,22.55
2022-11-05T08:37:03.050Z,18.23
2022-11-05T08:39:50.505Z,24.15
2022-11-05T08:42:37.831Z,18.85
2022-11-05T08:45:26.242Z,18.27
2022-11-05T08:48:16.023Z,15.60
2022-11-05T08:51:03.284Z,13.60
2022-11-05T08:53:50.702Z,16.80
2022-11-05T08:56:38.085Z,18.88
2022-11-05T08:59:25.600Z,31.23
2022-11-05T09:02:13.117Z,22.55
2022-11-05T09:05:00.596Z,23.90
2022-11-05T09:07:48.206Z,24.88
2022-11-05T09:10:36.241Z,18.77
2022-11-05T09:13:23.820Z,15.57
2022-11-05T09:16:23.477Z,17.35
2022-11-05T09:19:10.853Z,22.48
2022-11-05T09:21:59.474Z,15.02
2022-11-05T09:24:46.845Z,17.60
2022-11-05T09:27:34.152Z,13.63
2022-11-05T09:30:21.492Z,17.80
2022-11-05T09:33:09.494Z,11.98
2022-11-05T09:36:00.001Z,15.02
2022-11-05T09:38:47.608Z,16.60
2022-11-05T09:41:39.903Z,9.52
2022-11-05T09:44:52.681Z,12.05
2022-11-05T09:47:44.316Z,10.30
2022-11-05T09:50:40.518Z,7.70
2022-11-05T09:53:28.310Z,10.15
2022-11-05T09:56:22.233Z,8.50
2022-11-05T09:59:23.972Z,15.52
2022-11-05T10:02:20.834Z,20.95
2022-11-05T10:05:11.414Z,11.48
2022-11-05T10:08:03.569Z,12.18
2022-11-05T10:10:55.546Z,18.60
2022-11-05T10:13:47.482Z,14.93
2022-11-05T10:19:38.987Z,17.30
2022-11-05T10:22:26.548Z,12.75
2022-11-05T10:25:19.575Z,13.65
2022-11-05T10:28:09.743Z,15.95
2022-11-05T10:31:06.609Z,10.38
2022-11-05T10:34:00.625Z,10.13
2022-11-05T10:36:48.474Z,21.77
2022-11-05T10:39:36.354Z,13.50
2022-11-05T10:42:47.036Z,19.95
2022-11-05T10:45:46.809Z,23.80
2022-11-05T10:48:43.637Z,18.55
2022-11-05T10:51:32.534Z,10.50
2022-11-05T10:54:23.277Z,11.48
2022-11-05T10:57:39.545Z,8.65
2022-11-05T11:00:28.501Z,16.45
2022-11-05T11:03:48.066Z,16.50
2022-11-05T11:06:39.512Z,14.32
2022-11-05T11:09:28.835Z,18.00
2022-11-05T11:12:27.531Z,9.18
2022-11-05T11:15:27.433Z,12.43
2022-11-05T11:18:35.990Z,9.32
2022-11-05T11:21:28.715Z,8.40
2022-11-05T11:24:23.245Z,7.45
2022-11-05T11:27:18.011Z,9.93
2022-11-05T11:30:06.714Z,6.80
2022-11-05T11:33:00.060Z,7.40
2022-11-05T11:35:47.443Z,6.30
2022-11-05T11:38:36.459Z,8.57
2022-11-05T11:41:44.783Z,7.63
2022-11-05T11:44:39.593Z,7.70
2022-11-05T11:47:29.049Z,9.95
2022-11-05T11:50:31.414Z,7.78
2022-11-05T11:53:21.458Z,16.92
2022-11-05T11:56:20.347Z,7.07
2022-11-05T11:59:40.604Z,8.23
2022-11-05T12:03:07.748Z,11.98
2022-11-05T12:06:07.939Z,13.90
2022-11-05T12:09:14.168Z,14.07
2022-11-05T12:12:15.208Z,12.32
2022-11-05T12:15:24.456Z,14.57
2022-11-05T12:19:00.667Z,8.07
2022-11-05T12:21:52.931Z,8.25
2022-11-05T12:24:52.720Z,9.57
2022-11-05T12:27:40.044Z,13.35
2022-11-05T12:30:39.637Z,10.38
2022-11-05T12:33:47.195Z,15.13
2022-11-05T12:36:53.219Z,12.63
2022-11-05T12:40:27.063Z,19.45
2022-11-05T12:43:56.916Z,19.77
2022-11-05T12:47:17.744Z,9.38
2022-11-05T12:50:28.484Z,13.90
2022-11-05T12:53:43.464Z,13.00
2022-11-05T12:56:37.062Z,8.88
2022-11-05T13:00:06.586Z,6.28
2022-11-05T13:03:09.253Z,9.85
2022-11-05T13:06:00.191Z,7.68
2022-11-05T13:09:04.454Z,7.28
2022-11-05T13:11:56.542Z,9.80
2022-11-05T13:15:12.892Z,10.38
2022-11-05T13:18:05.425Z,4.28
2022-11-05T13:20:54.483Z,9.88
2022-11-05T13:23:49.213Z,4.90
2022-11-05T13:26:45.993Z,6.70
2022-11-05T13:29:41.357Z,5.60
2022-11-05T13:32:35.982Z,9.75
2022-11-05T13:35:31.380Z,10.30
2022-11-05T13:38:44.499Z,8.98
2022-11-05T13:41:57.720Z,7.05
2022-11-05T13:44:53.724Z,11.10
2022-11-05T13:47:56.012Z,8.93
2022-11-05T13:51:11.070Z,7.13
2022-11-05T13:54:21.619Z,8.73
2022-11-05T13:57:34.599Z,9.43
2022-11-05T14:00:27.409Z,9.73
2022-11-05T14:03:19.247Z,8.30
2022-11-05T14:09:02.616Z,7.45
2022-11-05T14:11:56.532Z,8.15
2022-11-05T14:14:53.275Z,7.80
2022-11-05T14:18:35.391Z,6.80
2022-11-05T14:21:32.350Z,7.13
2022-11-05T14:24:22.640Z,10.20
2022-11-05T14:27:29.904Z,8.32
2022-11-05T14:30:45.977Z,11.80
2022-11-05T14:33:38.922Z,15.68
2022-11-05T14:36:26.303Z,8.38
2022-11-05T14:39:13.929Z,8.80
2022-11-05T14:42:27.591Z,10.35
2022-11-05T14:45:17.565Z,8.95
2022-11-05T14:48:23.530Z,11.27
2022-11-05T14:51:32.188Z,8.15
2022-11-05T14:54:21.801Z,14.73
2022-11-05T14:57:14.942Z,9.05
2022-11-05T15:00:03.254Z,6.60
2022-11-05T15:03:36.275Z,6.72
2022-11-05T15:06:28.155Z,7.93
2022-11-05T15:09:22.957Z,11.30
2022-11-05T15:12:31.749Z,6.68
2022-11-05T15:15:32.167Z,6.38
2022-11-05T15:18:36.733Z,7.45
2022-11-05T15:21:25.496Z,8.20
2022-11-05T15:24:15.887Z,7.10
2022-11-05T15:27:09.382Z,11.55
2022-11-05T15:29:57.254Z,9.50
2022-11-05T15:32:44.688Z,9.40
2022-11-05T15:35:39.351Z,9.07
2022-11-05T15:38:28.331Z,10.90
2022-11-05T15:41:20.820Z,11.95
2022-11-05T15:44:24.069Z,16.05
2022-11-05T15:47:16.604Z,9.77
2022-11-05T15:50:14.787Z,12.95
2022-11-05T15:53:41.641Z,16.10
2022-11-05T15:56:31.702Z,22.20
2022-11-05T15:59:24.435Z,25.27
2022-11-05T16:02:33.942Z,16.20
2022-11-05T16:05:22.010Z,32.78
2022-11-05T16:08:17.662Z,36.10
2022-11-05T16:11:05.330Z,29.95
2022-11-05T16:13:53.871Z,24.92
2022-11-05T16:16:41.319Z,26.05
2022-11-05T16:19:40.109Z,43.25
2022-11-05T16:22:45.194Z,47.03
2022-11-05T16:25:38.495Z,56.03
2022-11-05T16:28:28.694Z,36.97
2022-11-05T16:31:21.974Z,19.67
2022-11-05T16:34:25.874Z,19.42
2022-11-05T16:37:16.355Z,20.20
2022-11-05T16:40:13.389Z,27.00
2022-11-05T16:43:15.729Z,26.33
2022-11-05T16:46:03.104Z,27.02
2022-11-05T16:48:50.379Z,23.33
2022-11-05T16:51:38.451Z,37.63
2022-11-05T16:54:25.777Z,42.53
2022-11-05T16:57:25.665Z,32.45
2022-11-05T17:00:18.623Z,23.00
2022-11-05T17:03:05.997Z,14.38
2022-11-05T17:05:53.642Z,14.45
2022-11-05T17:08:41.433Z,16.67
2022-11-05T17:11:28.799Z,14.43
2022-11-05T17:14:16.165Z,13.10
2022-11-05T17:17:04.086Z,10.57
2022-11-05T17:19:51.431Z,13.50
2022-11-05T17:22:38.724Z,11.13
2022-11-05T17:25:26.741Z,18.20
2022-11-05T17:28:16.864Z,18.08
2022-11-05T17:31:07.684Z,26.98
2022-11-05T17:33:58.655Z,24.17
2022-11-05T17:36:45.979Z,18.48
2022-11-05T17:39:33.817Z,15.43
2022-11-05T17:42:21.220Z,17.50
2022-11-05T17:45:09.711Z,17.75
2022-11-05T17:47:57.168Z,15.45
2022-11-05T17:50:47.299Z,18.95
2022-11-05T17:53:35.794Z,23.55
2022-11-05T17:56:33.437Z,21.85
2022-11-05T17:59:21.037Z,17.83
2022-11-05T18:02:12.300Z,17.48
2022-11-05T18:04:59.699Z,15.25
2022-11-05T18:07:47.747Z,14.63
2022-11-05T18:10:40.562Z,18.98
2022-11-05T18:13:27.908Z,22.02
2022-11-05T18:16:15.473Z,19.55
2022-11-05T18:19:04.430Z,20.98
2022-11-05T18:21:53.491Z,18.73
2022-11-05T18:24:40.934Z,21.88
2022-11-05T18:27:28.244Z,17.42
2022-11-05T18:30:15.976Z,19.63
2022-11-05T18:33:03.756Z,19.60
2022-11-05T18:35:52.297Z,19.90
2022-11-05T18:38:39.680Z,22.98
2022-11-05T18:41:27.878Z,22.48
2022-11-05T18:44:16.733Z,16.83
2022-11-05T18:47:05.804Z,18.02
2022-11-05T18:49:53.390Z,21.75
2022-11-05T18:52:40.634Z,19.08
2022-11-05T18:55:28.051Z,21.98
2022-11-05T18:58:15.680Z,22.90
2022-11-05T19:01:06.576Z,19.42
2022-11-05T19:03:54.793Z,21.35
2022-11-05T19:06:42.606Z,19.45
2022-11-05T19:09:29.931Z,18.73
2022-11-05T19:12:17.493Z,21.08
2022-11-05T19:15:05.531Z,19.15
2022-11-05T19:17:53.160Z,22.23
2022-11-05T19:20:40.701Z,32.45
2022-11-05T19:23:28.180Z,27.70
2022-11-05T19:26:19.473Z,30.98
2022-11-05T19:29:09.229Z,36.78
2022-11-05T19:31:56.521Z,21.23
2022-11-05T19:34:43.822Z,20.27
2022-11-05T19:37:31.352Z,27.67
2022-11-05T19:40:19.337Z,33.05
2022-11-05T19:43:07.166Z,29.08
2022-11-05T19:45:54.475Z,36.15
2022-11-05T19:48:42.858Z,27.02
2022-11-05T19:51:31.728Z,20.80
2022-11-05T19:54:19.039Z,30.08
2022-11-05T19:57:06.517Z,23.65
2022-11-05T19:59:53.847Z,20.42
2022-11-05T20:02:45.921Z,26.45
2022-11-05T20:05:34.054Z,34.70
2022-11-05T20:08:21.354Z,24.83
2022-11-05T20:11:09.075Z,25.75
2022-11-05T20:13:56.919Z,16.25
2022-11-05T20:16:45.968Z,25.27
2022-11-05T20:19:33.837Z,19.90
2022-11-05T20:22:22.697Z,29.70
2022-11-05T20:25:10.916Z,22.42
2022-11-05T20:27:58.220Z,14.73
2022-11-05T20:30:45.578Z,16.90
2022-11-05T20:33:32.879Z,23.83
2022-11-05T20:36:22.541Z,19.63
2022-11-05T20:39:12.311Z,21.00
2022-11-05T20:42:00.666Z,24.95
2022-11-05T20:44:48.159Z,12.85
2022-11-05T20:47:35.574Z,15.82
2022-11-05T20:50:22.870Z,30.50
2022-11-05T20:53:11.665Z,16.15
2022-11-05T20:56:02.402Z,41.20
2022-11-05T20:58:53.583Z,21.42
2022-11-05T21:01:41.089Z,32.60
2022-11-05T21:04:28.631Z,20.33
2022-11-05T21:07:15.998Z,37.80
2022-11-05T21:10:04.033Z,18.10
2022-11-05T21:12:51.356Z,22.25
2022-11-05T21:15:38.651Z,30.85
2022-11-05T21:18:31.076Z,18.00
2022-11-05T21:21:20.479Z,21.80
2022-11-05T21:24:08.105Z,14.70
2022-11-05T21:26:56.038Z,21.13
2022-11-05T21:29:43.339Z,29.85
2022-11-05T21:32:30.654Z,21.38
2022-11-05T21:35:17.877Z,18.63
2022-11-05T21:38:05.496Z,15.70
2022-11-05T21:40:52.775Z,15.60
2022-11-05T21:43:42.028Z,26.17
2022-11-05T21:46:29.482Z,31.98
2022-11-05T21:49:16.808Z,54.80
2022-11-05T21:52:23.265Z,20.30
2022-11-05T21:55:30.587Z,26.67
2022-11-05T21:58:36.463Z,17.52
2022-11-05T22:01:23.878Z,26.85
2022-11-05T22:04:11.220Z,16.38
2022-11-05T22:06:59.151Z,34.17
2022-11-05T22:09:46.950Z,27.70
2022-11-05T22:12:34.277Z,24.60
2022-11-05T22:15:21.830Z,18.05
2022-11-05T22:18:09.222Z,17.70
2022-11-05T22:20:56.629Z,19.60
2022-11-05T22:23:44.628Z,17.73
2022-11-05T22:26:31.981Z,19.83
2022-11-05T22:29:19.750Z,26.52
2022-11-05T22:32:07.405Z,12.38
2022-11-05T22:34:55.020Z,15.98
2022-11-05T22:37:42.483Z,13.52
2022-11-05T22:40:29.793Z,23.20
2022-11-05T22:43:17.445Z,30.17
2022-11-05T22:46:10.628Z,30.38
2022-11-05T22:48:59.908Z,21.35
2022-11-05T22:51:47.391Z,24.85
2022-11-05T22:54:39.001Z,28.77
2022-11-05T23:00:17.279Z,23.70
2022-11-05T23:03:04.712Z,24.33
2022-11-05T23:06:01.408Z,43.83
2022-11-05T23:09:07.314Z,46.85
2022-11-05T23:11:54.669Z,28.67
2022-11-05T23:14:41.934Z,16.42
2022-11-05T23:17:47.809Z,18.05
2022-11-05T23:20:53.692Z,16.88
2022-11-05T23:23:59.226Z,28.73
2022-11-05T23:26:52.213Z,19.23
2022-11-05T23:29:39.576Z,15.15
2022-11-05T23:32:28.495Z,19.08
2022-11-05T23:35:16.357Z,13.70
2022-11-05T23:38:22.309Z,9.95
2022-11-05T23:41:27.900Z,19.13
2022-11-05T23:44:33.922Z,10.85
2022-11-05T23:47:39.610Z,8.77
2022-11-05T23:50:27.369Z,9.05
2022-11-05T23:53:14.760Z,13.60
2022-11-05T23:56:11.687Z,11.63
2022-11-05T23:58:58.960Z,29.55
